Walla Walla Regional Airport
KALW : rendu visible

Aérodrome :











RETROUVEZ-NOUS SUR...

 
LOGIN :

S'inscrire | Disclaimer

   EN    FR    IT 

 









Légende :    VFR   VFR Marginal   IFR   IFR Intensif   IFR Très Intensif
Visi : 
Plafond : 
>= 8 km
>= 3000ft
5 à 8 km
1000 à 3000 ft
1500m à 5 km
500 à 1000 ft
800 à 1500m
200 à 500 ft
< 800m
< 200 ft
Symboles :   Orages  Brouillard  Fortes neiges  Fortes précipitations  Vent > 20 kt






- Altitude de l'aérodrome : 1194 ft
- Code IATA : ALW


KALW - Walla Walla Regional

DERNIER METAR :
  • 201653Z 19006KT 10SM OVC033 04/M01 A3010 RMK AO2 SLP201 T00391006

METARs EXPIRÉS :
  • 201553Z 18007KT 10SM BKN039 OVC055 04/M01 A3009 RMK AO2 SLP196 T00391006
  • 201453Z 17007KT 10SM BKN032 BKN040 OVC049 04/00 A3007 RMK AO2 SLP188 T00390000 53017

TAF KALW
Valide du 20 à 18h jusqu'au 21 à 18h UTC


201720Z 2018/2118 19008KT P6SM BKN035
FM202300 14006KT P6SM FEW035
FM210800 14006KT 4SM BR VCFG SCT010 SCT030
FM211730 VRB04KT 6SM HZ FEW030



MET'MAP, la Météo Aéronautique d'un coup d'oeil ! - Copyright ORBIFLY Décembre 2007 - Disclaimer

ORBIFLY MET'MAP TEAM :

Programmation & Développement : Alexandra Zaïnal
Conception & Développement : Baudouin d'Aumeries
Co-Programmation & Développement : Marc-Olivier Méhu
Soutien technique & logistique : Manuel Goepfert

Contact : metmap@orbifly.com




SOURCES & CREDITS :

   NOAA       Earth
Advisory